Time;durP1;ratioP1;P1;durP2;ratioP2;P2;SDS_P1;SDS_P2;PMS_P1;PMS_P2;Temp;Humidity;BMP_temperature;BMP_pressure;BME280_temperature;BME280_humidity;BME280_pressure;Samples;Min_cycle;Max_cycle;Signal;HPM_P1;HPM_P2
2023/06/17 00:00:56;;;;;;;;;16.00;16.00;;;;;27.64;31.91;100929.66;2087270;28;46747;-55
2023/06/17 00:01:56;;;;;;;;;16.75;15.75;;;;;27.64;31.61;100929.66;2102445;28;46477;-58
2023/06/17 00:02:56;;;;;;;;;16.00;16.00;;;;;27.65;31.65;100930.53;2095181;28;46932;-56
2023/06/17 00:03:57;;;;;;;;;16.50;16.50;;;;;27.64;31.59;100926.94;2087588;28;46407;-57
2023/06/17 00:04:57;;;;;;;;;17.50;17.25;;;;;27.66;31.93;100930.38;2088426;28;46474;-57
2023/06/17 00:05:57;;;;;;;;;15.50;14.25;;;;;27.67;31.54;100929.38;2088969;28;46309;-57
2023/06/17 00:06:58;;;;;;;;;18.25;18.25;;;;;27.68;32.02;100932.97;2087409;28;46233;-57
2023/06/17 00:07:58;;;;;;;;;17.00;16.00;;;;;27.68;31.80;100930.25;2087314;28;47030;-57
2023/06/17 00:08:59;;;;;;;;;14.75;14.75;;;;;27.69;31.99;100934.69;2087894;28;46342;-57
2023/06/17 00:09:59;;;;;;;;;15.25;15.25;;;;;27.69;31.98;100935.56;2087873;28;45388;-57
2023/06/17 00:11:00;;;;;;;;;16.50;14.50;;;;;27.69;32.15;100932.81;2088042;28;46458;-58
2023/06/17 00:12:02;;;;;;;;;17.50;17.00;;;;;27.70;31.99;100931.84;2094718;28;46258;-57
2023/06/17 00:13:02;;;;;;;;;18.20;16.00;;;;;27.69;32.00;100930.09;2095089;28;46370;-58
2023/06/17 00:14:03;;;;;;;;;14.75;14.75;;;;;27.70;31.85;100925.53;2088150;28;46402;-57
2023/06/17 00:15:06;;;;;;;;;16.75;16.00;;;;;27.67;31.60;100929.38;2088149;28;46345;-56
2023/06/17 00:16:06;;;;;;;;;17.00;16.80;;;;;27.66;32.03;100922.22;2088399;28;45174;-57
2023/06/17 00:17:08;;;;;;;;;16.25;15.50;;;;;27.66;31.70;100932.25;2088029;28;45546;-57
2023/06/17 00:18:09;;;;;;;;;15.40;15.40;;;;;27.63;31.78;100930.63;2087307;28;47058;-57
2023/06/17 00:19:15;;;;;;;;;17.50;17.25;;;;;27.61;32.03;100924.47;2087094;28;45790;-56
2023/06/17 00:20:15;;;;;;;;;15.60;15.60;;;;;27.60;31.53;100924.59;2087344;28;46570;-56
2023/06/17 00:21:16;;;;;;;;;15.50;15.50;;;;;27.59;31.83;100925.59;2088093;28;45592;-56
2023/06/17 00:22:16;;;;;;;;;18.00;16.75;;;;;27.58;31.91;100926.63;2087448;28;46259;-57
2023/06/17 00:23:16;;;;;;;;;16.00;15.25;;;;;27.59;32.06;100925.59;2087856;28;46287;-55
2023/06/17 00:24:17;;;;;;;;;12.75;12.25;;;;;27.56;31.92;100922.13;2087747;28;46391;-57
2023/06/17 00:25:17;;;;;;;;;15.75;15.75;;;;;27.55;32.00;100920.41;2088003;28;46606;-55
2023/06/17 00:26:17;;;;;;;;;17.25;17.25;;;;;27.55;31.86;100925.00;2087984;28;46883;-54
2023/06/17 00:27:18;;;;;;;;;16.25;16.25;;;;;27.54;31.83;100921.41;2087698;28;46095;-55
2023/06/17 00:28:18;;;;;;;;;19.75;18.50;;;;;27.52;31.73;100915.25;2087815;28;46356;-56
2023/06/17 00:29:19;;;;;;;;;14.75;14.75;;;;;27.53;31.80;100913.38;2087470;28;47192;-56
2023/06/17 00:30:19;;;;;;;;;17.50;16.00;;;;;27.53;31.80;100922.41;2087657;28;46325;-57
2023/06/17 00:31:19;;;;;;;;;16.75;16.25;;;;;27.52;32.07;100912.50;2087653;28;46814;-57
2023/06/17 00:32:20;;;;;;;;;17.75;16.75;;;;;27.53;32.02;100916.09;2087897;28;46577;-54
2023/06/17 00:33:20;;;;;;;;;18.00;18.00;;;;;27.53;31.88;100913.38;2087476;28;46422;-58
2023/06/17 00:34:20;;;;;;;;;18.25;17.75;;;;;27.54;31.85;100912.38;2087751;28;46214;-57
2023/06/17 00:35:21;;;;;;;;;14.50;14.50;;;;;27.54;32.08;100915.09;2087961;28;46329;-56
2023/06/17 00:36:21;;;;;;;;;16.00;16.00;;;;;27.52;31.73;100907.06;2087395;28;46496;-56
2023/06/17 00:37:21;;;;;;;;;20.50;18.75;;;;;27.53;32.22;100913.38;2086694;28;46327;-57
2023/06/17 00:38:22;;;;;;;;;16.25;16.00;;;;;27.51;31.93;100913.50;2088477;28;46782;-57
2023/06/17 00:39:22;;;;;;;;;14.75;13.00;;;;;27.51;31.64;100912.66;2087154;28;46245;-57
2023/06/17 00:40:23;;;;;;;;;17.25;16.50;;;;;27.50;32.09;100909.06;2087892;28;46160;-54
2023/06/17 00:41:23;;;;;;;;;18.50;18.00;;;;;27.52;32.05;100903.47;2087906;28;46390;-56
2023/06/17 00:42:23;;;;;;;;;17.50;17.50;;;;;27.50;31.90;100909.06;2087625;28;46319;-56
2023/06/17 00:43:24;;;;;;;;;16.25;16.25;;;;;27.50;31.89;100910.94;2087547;28;46342;-55
2023/06/17 00:44:24;;;;;;;;;18.00;18.00;;;;;27.49;32.34;100904.63;2088063;28;46576;-54
2023/06/17 00:45:24;;;;;;;;;17.50;15.75;;;;;27.49;32.54;100906.47;2087763;28;46548;-55
2023/06/17 00:46:36;;;;;;;;;18.00;15.75;;;;;27.49;32.06;100903.75;2087897;28;46701;-56
2023/06/17 00:47:39;;;;;;;;;16.80;15.80;;;;;27.49;31.88;100901.03;2087050;28;47185;-56
2023/06/17 00:48:39;;;;;;;;;15.00;14.80;;;;;27.49;31.83;100895.56;2087858;28;45886;-56
2023/06/17 00:49:42;;;;;;;;;17.75;17.75;;;;;27.49;32.37;100898.31;2087782;28;48209;-56
2023/06/17 00:50:46;;;;;;;;;18.00;18.00;;;;;27.49;32.01;100892.84;2087080;28;46365;-58
2023/06/17 00:51:46;;;;;;;;;17.00;17.00;;;;;27.46;32.43;100885.81;2087735;28;46220;-56
2023/06/17 00:52:51;;;;;;;;;18.00;18.00;;;;;27.46;32.03;100887.69;2087857;28;46735;-56
2023/06/17 00:53:51;;;;;;;;;17.20;16.80;;;;;27.44;31.95;100882.38;2087895;28;46648;-55
2023/06/17 00:54:52;;;;;;;;;17.50;17.50;;;;;27.43;32.19;100888.78;2088015;28;46841;-57
2023/06/17 00:55:52;;;;;;;;;17.00;17.00;;;;;27.41;32.75;100879.91;2087633;28;46546;-56
2023/06/17 00:56:53;;;;;;;;;17.50;17.50;;;;;27.39;32.57;100875.59;2087531;28;46013;-57
2023/06/17 00:57:57;;;;;;;;;18.40;18.40;;;;;27.38;32.32;100884.78;2087257;28;46967;-58
2023/06/17 00:58:57;;;;;;;;;16.20;16.20;;;;;27.36;32.51;100876.75;2087026;28;46108;-56
2023/06/17 00:59:58;;;;;;;;;17.00;16.50;;;;;27.35;32.49;100877.75;2087708;28;46282;-57
2023/06/17 01:00:58;;;;;;;;;20.25;18.00;;;;;27.33;32.73;100871.56;2087444;28;46770;-58
2023/06/17 01:01:58;;;;;;;;;18.25;18.25;;;;;27.34;32.65;100870.56;2088518;28;46234;-56
2023/06/17 01:02:59;;;;;;;;;18.75;17.00;;;;;27.33;32.61;100866.13;2088102;28;46496;-57
2023/06/17 01:03:59;;;;;;;;;12.25;12.25;;;;;27.34;32.28;100875.16;2088900;28;46429;-56
2023/06/17 01:05:01;;;;;;;;;17.00;17.00;;;;;27.33;32.59;100865.25;2088187;28;46484;-56
2023/06/17 01:06:11;;;;;;;;;17.60;16.60;;;;;27.33;32.10;100870.72;2088041;28;46305;-57
2023/06/17 01:07:27;;;;;;;;;17.20;16.60;;;;;27.32;32.39;100869.84;2087836;28;45333;-56
2023/06/17 01:08:28;;;;;;;;;15.80;15.80;;;;;27.34;32.36;100866.97;2087778;28;46390;-56
2023/06/17 01:09:34;;;;;;;;;17.20;16.40;;;;;27.31;32.38;100859.91;2087475;28;46641;-57
2023/06/17 01:10:41;;;;;;;;;17.20;16.80;;;;;27.31;32.51;100861.78;2087588;28;46053;-57
2023/06/17 01:11:42;;;;;;;;;20.20;18.20;;;;;27.30;32.71;100870.97;2087800;28;46466;-57
2023/06/17 01:12:44;;;;;;;;;17.60;17.60;;;;;27.30;32.25;100866.38;2087587;28;46927;-58
2023/06/17 01:13:49;;;;;;;;;19.00;19.00;;;;;27.30;32.30;100866.38;2087395;28;46537;-57
2023/06/17 01:14:53;;;;;;;;;14.00;14.00;;;;;27.31;32.16;100868.09;2087577;28;46590;-58
2023/06/17 01:15:55;;;;;;;;;16.60;16.00;;;;;27.32;32.37;100861.66;2087703;28;46320;-57
2023/06/17 01:16:56;;;;;;;;;15.20;14.40;;;;;27.34;32.32;100864.25;2087601;28;46529;-56
2023/06/17 01:17:58;;;;;;;;;16.00;16.00;;;;;27.34;32.59;100858.81;2087380;28;46708;-57
2023/06/17 01:18:59;;;;;;;;;16.20;16.20;;;;;27.34;32.12;100864.25;2087339;28;46723;-55
2023/06/17 01:20:02;;;;;;;;;15.40;15.20;;;;;27.34;32.38;100862.41;2087432;28;46902;-57
2023/06/17 01:21:03;;;;;;;;;16.00;15.60;;;;;27.34;32.15;100861.53;2088243;28;46561;-55
2023/06/17 01:22:08;;;;;;;;;17.50;16.50;;;;;27.33;32.36;100863.41;2088276;28;46184;-57
2023/06/17 01:23:11;;;;;;;;;13.00;13.00;;;;;27.34;31.97;100867.84;2086890;28;46325;-56
2023/06/17 01:24:13;;;;;;;;;17.80;15.60;;;;;27.34;32.08;100861.53;2085936;28;46113;-56
2023/06/17 01:25:14;;;;;;;;;15.80;15.80;;;;;27.33;31.77;100863.41;2085925;28;46572;-56
2023/06/17 01:26:16;;;;;;;;;13.00;13.00;;;;;27.33;32.16;100871.56;2087708;28;46659;-58
2023/06/17 01:27:17;;;;;;;;;16.00;16.00;;;;;27.34;31.97;100866.97;2086947;28;46832;-56
2023/06/17 01:28:19;;;;;;;;;13.80;13.80;;;;;27.32;31.90;100867.13;2087334;28;47148;-57
2023/06/17 01:29:19;;;;;;;;;15.80;15.80;;;;;27.31;32.54;100868.09;2087184;28;46463;-58
2023/06/17 01:30:20;;;;;;;;;15.25;15.25;;;;;27.32;32.51;100866.25;2087449;28;45853;-55
2023/06/17 01:31:20;;;;;;;;;16.50;15.00;;;;;27.31;31.98;100862.66;2087637;28;46250;-57
2023/06/17 01:32:21;;;;;;;;;17.75;16.75;;;;;27.31;32.50;100869.97;2087357;28;46406;-55
2023/06/17 01:33:22;;;;;;;;;13.75;12.50;;;;;27.31;32.02;100862.66;2087320;28;47009;-56
2023/06/17 01:34:34;;;;;;;;;14.60;14.60;;;;;27.30;31.90;100865.50;2087559;28;45044;-56
2023/06/17 01:35:38;;;;;;;;;17.20;16.20;;;;;27.28;32.30;100863.78;2087987;28;46818;-58
2023/06/17 01:36:39;;;;;;;;;17.00;17.00;;;;;27.29;32.42;100867.38;2087573;28;46339;-55
2023/06/17 01:37:51;;;;;;;;;17.20;17.20;;;;;27.27;32.22;100870.25;2087193;28;46479;-56
2023/06/17 01:38:58;;;;;;;;;14.00;14.00;;;;;27.26;32.07;100863.06;2087220;28;46431;-56
2023/06/17 01:40:00;;;;;;;;;15.60;15.60;;;;;27.26;32.69;100864.94;2087366;28;45721;-56
2023/06/17 01:41:06;;;;;;;;;16.60;16.60;;;;;27.27;32.28;100872.97;2087717;28;45545;-57
2023/06/17 01:42:12;;;;;;;;;16.00;15.00;;;;;27.27;32.10;100863.94;2087024;28;46348;-54
2023/06/17 01:43:15;;;;;;;;;15.00;14.80;;;;;27.26;32.00;100862.19;2086926;28;46895;-57
2023/06/17 01:44:16;;;;;;;;;16.60;16.00;;;;;27.27;32.05;100861.19;2102713;28;46804;-57
2023/06/17 01:45:18;;;;;;;;;16.20;16.20;;;;;27.27;32.04;100856.63;2102271;28;46353;-58
2023/06/17 01:46:19;;;;;;;;;15.20;15.20;;;;;27.30;32.08;100857.34;2086755;28;46288;-58
2023/06/17 01:47:21;;;;;;;;;14.20;13.60;;;;;27.30;32.49;100857.34;2087507;28;46403;-58
2023/06/17 01:48:21;;;;;;;;;17.40;16.40;;;;;27.31;32.51;100861.78;2087017;28;46452;-57
2023/06/17 01:49:22;;;;;;;;;16.00;16.00;;;;;27.30;32.50;100854.59;2089146;28;46204;-57
2023/06/17 01:50:22;;;;;;;;;16.75;15.75;;;;;27.30;32.28;100855.47;2090750;28;45352;-57
2023/06/17 01:51:23;;;;;;;;;15.25;15.25;;;;;27.32;32.35;100861.66;2087890;28;46454;-58
2023/06/17 01:52:23;;;;;;;;;15.75;15.75;;;;;27.31;32.93;100851.75;2087125;28;46670;-56
2023/06/17 01:53:24;;;;;;;;;16.75;16.75;;;;;27.33;32.00;100854.34;2088013;28;45919;-57
2023/06/17 01:54:27;;;;;;;;;18.60;17.80;;;;;27.31;32.63;100853.59;2087168;28;46759;-57
2023/06/17 01:55:27;;;;;;;;;18.20;17.00;;;;;27.31;32.43;100851.75;2087047;28;46865;-55
2023/06/17 01:56:28;;;;;;;;;14.00;14.00;;;;;27.30;32.18;100847.28;2087330;28;46330;-55
2023/06/17 01:57:28;;;;;;;;;15.50;15.50;;;;;27.29;32.88;100853.75;2087622;28;46536;-56
2023/06/17 01:58:29;;;;;;;;;17.50;17.50;;;;;27.28;32.61;100852.03;2087695;28;46261;-56
2023/06/17 01:59:30;;;;;;;;;15.25;15.25;;;;;27.27;32.52;100847.56;2087319;28;46413;-56
2023/06/17 02:00:30;;;;;;;;;15.20;15.20;;;;;27.25;32.70;100845.00;2087424;28;47007;-55
2023/06/17 02:01:31;;;;;;;;;16.00;16.00;;;;;27.25;32.82;100846.84;2087802;28;46582;-56
2023/06/17 02:02:31;;;;;;;;;18.00;16.75;;;;;27.24;32.47;100845.13;2091418;28;46175;-59
2023/06/17 02:03:32;;;;;;;;;17.50;17.50;;;;;27.22;32.55;100848.00;2090193;28;46878;-57
2023/06/17 02:04:32;;;;;;;;;15.60;15.60;;;;;27.20;32.78;100852.72;2088495;28;46529;-56
2023/06/17 02:05:33;;;;;;;;;15.00;14.00;;;;;27.17;32.74;100844.81;2088032;28;46286;-54
2023/06/17 02:06:33;;;;;;;;;17.75;16.25;;;;;27.14;33.09;100850.53;2087954;28;45579;-56
2023/06/17 02:07:33;;;;;;;;;15.50;14.50;;;;;27.11;32.85;100845.38;2086917;28;46937;-56
2023/06/17 02:08:34;;;;;;;;;16.75;16.75;;;;;27.09;33.30;100841.94;2087446;28;45590;-55
2023/06/17 02:09:34;;;;;;;;;15.00;15.00;;;;;27.09;32.53;100843.78;2086917;28;46209;-55
2023/06/17 02:10:35;;;;;;;;;17.00;16.50;;;;;27.08;33.19;100850.25;2087391;28;46604;-56
2023/06/17 02:11:35;;;;;;;;;18.00;16.50;;;;;27.05;32.92;100845.91;2086725;28;46402;-56
2023/06/17 02:12:35;;;;;;;;;17.25;17.25;;;;;27.04;32.87;100844.19;2086913;28;46123;-56
2023/06/17 02:13:36;;;;;;;;;16.75;13.75;;;;;27.02;32.73;100854.34;2086983;28;46149;-56
2023/06/17 02:14:37;;;;;;;;;16.50;16.00;;;;;27.01;32.74;100849.00;2087349;28;46045;-56
2023/06/17 02:15:38;;;;;;;;;16.60;16.60;;;;;27.01;33.01;100849.00;2087182;28;46314;-57
2023/06/17 02:16:44;;;;;;;;;15.60;15.60;;;;;26.98;32.96;100848.28;2092751;28;46796;-57
2023/06/17 02:17:44;;;;;;;;;17.00;17.00;;;;;26.98;33.41;100845.56;2095391;28;46169;-56
2023/06/17 02:18:47;;;;;;;;;17.50;17.50;;;;;26.98;32.97;100845.56;2096370;28;46250;-56
2023/06/17 02:19:47;;;;;;;;;16.40;16.20;;;;;26.98;33.66;100851.00;2082295;28;46641;-57
2023/06/17 02:20:48;;;;;;;;;16.25;16.25;;;;;26.95;33.17;100845.84;2083494;28;46219;-57
2023/06/17 02:21:48;;;;;;;;;15.00;15.00;;;;;26.93;33.39;100847.84;2070259;28;46896;-55
2023/06/17 02:22:49;;;;;;;;;16.50;15.50;;;;;26.92;32.99;100854.25;2071461;28;46666;-55
2023/06/17 02:23:50;;;;;;;;;15.40;15.40;;;;;26.90;33.16;100850.81;2079428;28;46798;-56
2023/06/17 02:24:50;;;;;;;;;17.25;17.25;;;;;26.89;33.01;100848.22;2078800;28;46459;-57
2023/06/17 02:25:50;;;;;;;;;19.00;19.00;;;;;26.87;33.67;100850.22;2078935;28;46683;-58
2023/06/17 02:26:51;;;;;;;;;18.25;18.25;;;;;26.84;33.36;100845.91;2070861;28;47073;-57
2023/06/17 02:27:51;;;;;;;;;15.50;15.50;;;;;26.82;33.43;100839.75;2070573;28;46384;-56
2023/06/17 02:28:52;;;;;;;;;17.50;14.75;;;;;26.82;33.69;100847.06;2078722;28;46613;-55
2023/06/17 02:29:52;;;;;;;;;18.50;18.50;;;;;26.81;33.77;100842.63;2086715;28;46345;-57
2023/06/17 02:30:53;;;;;;;;;16.00;16.00;;;;;26.80;33.29;100849.88;2086449;28;45183;-57
2023/06/17 02:31:53;;;;;;;;;18.25;18.25;;;;;26.80;33.41;100840.84;2087228;28;46269;-58
2023/06/17 02:32:53;;;;;;;;;14.50;14.50;;;;;26.78;34.12;100845.59;2080698;28;46348;-56
2023/06/17 02:33:54;;;;;;;;;18.75;17.75;;;;;26.75;33.37;100838.56;2070593;28;46141;-58
2023/06/17 02:34:54;;;;;;;;;16.00;16.00;;;;;26.74;33.52;100836.81;2070655;28;46192;-56
2023/06/17 02:35:54;;;;;;;;;14.25;14.25;;;;;26.72;33.64;100833.38;2079221;28;46394;-58
2023/06/17 02:36:56;;;;;;;;;20.00;18.50;;;;;26.74;33.61;100841.41;2079169;28;46298;-56
2023/06/17 02:37:56;;;;;;;;;16.40;15.40;;;;;26.74;33.45;100835.97;2074748;28;46257;-56
2023/06/17 02:38:58;;;;;;;;;17.25;16.75;;;;;26.74;33.44;100835.97;2078682;28;46215;-56
2023/06/17 02:39:58;;;;;;;;;16.20;16.20;;;;;26.72;34.14;100830.66;2078470;28;46228;-57
2023/06/17 02:40:58;;;;;;;;;16.25;16.00;;;;;26.74;33.58;100830.53;2078482;28;46636;-55
2023/06/17 02:41:59;;;;;;;;;13.25;13.25;;;;;26.75;33.83;100834.97;2078734;28;46971;-57
2023/06/17 02:42:59;;;;;;;;;17.50;17.00;;;;;26.72;34.01;100822.50;2078952;28;46594;-58
2023/06/17 02:44:00;;;;;;;;;16.50;16.50;;;;;26.72;34.07;100821.63;2079147;28;46648;-57
2023/06/17 02:45:00;;;;;;;;;16.75;16.75;;;;;26.69;34.02;100822.78;2078863;28;45995;-57
2023/06/17 02:46:00;;;;;;;;;18.75;17.00;;;;;26.68;33.55;100821.03;2078817;28;46488;-56
2023/06/17 02:47:01;;;;;;;;;16.50;16.50;;;;;26.66;33.91;100817.56;2079291;28;46516;-55
2023/06/17 02:48:02;;;;;;;;;19.25;17.00;;;;;26.67;33.59;100828.31;2084308;28;46485;-56
2023/06/17 02:49:03;;;;;;;;;15.00;15.00;;;;;26.66;33.67;100821.16;2080812;28;46212;-55
2023/06/17 02:50:05;;;;;;;;;17.20;15.00;;;;;26.65;33.83;100813.97;2065281;28;46886;-56
2023/06/17 02:51:07;;;;;;;;;18.20;17.80;;;;;26.65;33.75;100813.97;2070358;28;46882;-57
2023/06/17 02:52:07;;;;;;;;;16.00;16.00;;;;;26.65;33.77;100818.56;2088161;28;46161;-56
2023/06/17 02:53:08;;;;;;;;;14.50;13.50;;;;;26.65;34.30;100818.56;2087804;28;46239;-57
2023/06/17 02:54:10;;;;;;;;;16.00;16.00;;;;;26.66;33.74;100812.13;2088259;28;46372;-57
2023/06/17 02:55:11;;;;;;;;;16.60;16.60;;;;;26.64;33.81;100814.13;2088528;28;46219;-55
2023/06/17 02:56:11;;;;;;;;;14.50;14.50;;;;;26.65;34.16;100813.13;2096606;28;46763;-56
2023/06/17 02:57:12;;;;;;;;;15.25;15.25;;;;;26.65;33.68;100810.41;2096116;28;46131;-57
2023/06/17 02:58:15;;;;;;;;;16.75;16.25;;;;;26.64;33.85;100812.25;2096621;28;46399;-56
2023/06/17 02:59:18;;;;;;;;;15.00;14.40;;;;;26.64;34.17;100803.22;2095989;28;46720;-56
2023/06/17 03:00:18;;;;;;;;;18.60;17.40;;;;;26.64;33.96;100805.97;2096211;28;46513;-58
2023/06/17 03:01:21;;;;;;;;;15.50;15.50;;;;;26.64;33.98;100801.38;2096518;28;46548;-57
2023/06/17 03:02:21;;;;;;;;;15.80;15.20;;;;;26.64;33.71;100801.38;2095741;28;47050;-57
2023/06/17 03:03:34;;;;;;;;;16.75;15.25;;;;;26.64;33.94;100798.66;2094985;28;45914;-56
2023/06/17 03:04:37;;;;;;;;;16.40;15.80;;;;;26.65;34.10;100794.94;2093153;28;46812;-56
2023/06/17 03:05:37;;;;;;;;;15.80;15.80;;;;;26.67;34.34;100797.50;2090186;28;46683;-57
2023/06/17 03:06:40;;;;;;;;;15.50;15.00;;;;;26.68;34.37;100796.53;2089227;28;46408;-58
2023/06/17 03:07:42;;;;;;;;;16.00;16.00;;;;;26.69;33.74;100795.53;2096498;28;46839;-58
2023/06/17 03:08:42;;;;;;;;;14.60;14.00;;;;;26.70;33.92;100789.09;2090798;28;46434;-58
2023/06/17 03:09:42;;;;;;;;;15.25;15.25;;;;;26.71;33.87;100798.13;2087940;28;46052;-57
2023/06/17 03:10:43;;;;;;;;;17.75;17.50;;;;;26.72;34.19;100798.00;2080115;28;46507;-56
2023/06/17 03:11:43;;;;;;;;;16.25;16.25;;;;;26.73;33.61;100799.72;2084870;28;46568;-56
2023/06/17 03:12:43;;;;;;;;;12.50;12.50;;;;;26.74;34.06;100792.41;2088500;28;45141;-56
2023/06/17 03:13:43;;;;;;;;;15.75;15.00;;;;;26.74;33.96;100793.25;2087973;28;45851;-55
2023/06/17 03:14:47;;;;;;;;;17.25;16.75;;;;;26.76;33.96;100794.00;2086592;28;46439;-58
2023/06/17 03:15:47;;;;;;;;;15.80;15.80;;;;;26.78;33.57;100793.84;2079414;28;47107;-57
2023/06/17 03:16:48;;;;;;;;;17.25;15.50;;;;;26.78;34.25;100786.53;2085137;28;46649;-56
2023/06/17 03:17:48;;;;;;;;;15.50;14.50;;;;;26.80;33.55;100795.44;2087825;28;46688;-56
2023/06/17 03:18:48;;;;;;;;;13.00;13.00;;;;;26.80;34.29;100789.13;2095948;28;46404;-57
2023/06/17 03:19:49;;;;;;;;;18.25;16.75;;;;;26.81;33.61;100799.91;2092746;28;46810;-56
2023/06/17 03:20:51;;;;;;;;;13.75;13.75;;;;;26.81;34.33;100799.03;2093486;28;46299;-57
2023/06/17 03:21:51;;;;;;;;;17.20;17.20;;;;;26.81;33.64;100796.31;2090258;28;46791;-55
2023/06/17 03:22:52;;;;;;;;;15.25;15.25;;;;;26.81;34.20;100801.78;2089022;28;46618;-56
2023/06/17 03:23:53;;;;;;;;;16.00;15.50;;;;;26.80;34.39;100800.00;2087584;28;46436;-55
2023/06/17 03:24:53;;;;;;;;;16.20;16.20;;;;;26.81;33.54;100813.53;2088463;28;45712;-56
2023/06/17 03:25:54;;;;;;;;;15.25;15.25;;;;;26.80;34.38;100809.03;2087665;28;45937;-57
2023/06/17 03:26:55;;;;;;;;;17.00;17.00;;;;;26.80;34.18;100802.75;2080487;28;46516;-57
2023/06/17 03:27:55;;;;;;;;;14.50;14.50;;;;;26.81;34.03;100813.53;2081986;28;46519;-57
2023/06/17 03:28:56;;;;;;;;;16.50;16.50;;;;;26.80;34.21;100809.03;2104170;28;46392;-57
2023/06/17 03:29:56;;;;;;;;;17.00;16.00;;;;;26.80;33.75;100810.91;2103967;28;46714;-57
2023/06/17 03:30:57;;;;;;;;;16.75;16.75;;;;;26.80;33.74;100816.34;2094236;28;46508;-57
2023/06/17 03:31:57;;;;;;;;;15.75;15.75;;;;;26.80;34.21;100805.47;2094651;28;46634;-56
2023/06/17 03:32:58;;;;;;;;;17.00;17.00;;;;;26.78;34.16;100808.31;2095050;28;46766;-56
2023/06/17 03:33:58;;;;;;;;;18.50;18.00;;;;;26.78;34.38;100805.59;2095037;28;46859;-57
2023/06/17 03:34:58;;;;;;;;;16.50;16.25;;;;;26.78;34.16;100812.91;2095098;28;46717;-57
2023/06/17 03:35:59;;;;;;;;;15.25;15.25;;;;;26.77;34.09;100805.75;2095257;28;46368;-56
2023/06/17 03:36:59;;;;;;;;;15.75;15.75;;;;;26.75;34.40;100811.31;2094928;28;46319;-57
2023/06/17 03:38:00;;;;;;;;;16.25;16.00;;;;;26.74;34.12;100809.59;2090530;28;46719;-55
2023/06/17 03:39:00;;;;;;;;;15.80;15.80;;;;;26.72;33.64;100803.44;2091451;28;46312;-56
2023/06/17 03:40:01;;;;;;;;;15.00;15.00;;;;;26.72;34.31;100802.56;2095062;28;46523;-56
2023/06/17 03:41:01;;;;;;;;;12.75;12.75;;;;;26.72;33.81;100808.00;2086756;28;46725;-55
2023/06/17 03:42:01;;;;;;;;;16.00;16.00;;;;;26.70;34.52;100802.72;2087042;28;46587;-56
2023/06/17 03:43:02;;;;;;;;;14.75;14.75;;;;;26.69;34.47;100801.84;2094988;28;46700;-55
2023/06/17 03:44:02;;;;;;;;;15.25;14.25;;;;;26.70;34.31;100800.00;2094446;28;46439;-56
2023/06/17 03:45:03;;;;;;;;;20.00;18.50;;;;;26.71;34.52;100798.13;2079218;28;46116;-56
2023/06/17 03:46:03;;;;;;;;;15.75;15.75;;;;;26.70;34.22;100797.28;2078409;28;46900;-58
2023/06/17 03:47:04;;;;;;;;;16.50;15.75;;;;;26.71;34.00;100793.53;2087524;28;46268;-57
2023/06/17 03:48:05;;;;;;;;;17.20;15.60;;;;;26.73;34.06;100798.84;2100917;28;46850;-57
2023/06/17 03:49:05;;;;;;;;;17.00;17.00;;;;;26.73;34.33;100798.84;2098577;28;46614;-57
2023/06/17 03:50:07;;;;;;;;;16.00;16.00;;;;;26.74;34.03;100793.25;2095237;28;46585;-56
2023/06/17 03:51:07;;;;;;;;;16.60;16.20;;;;;26.75;34.05;100802.28;2088971;28;46246;-57
2023/06/17 03:52:08;;;;;;;;;18.50;17.00;;;;;26.75;34.29;100796.84;2080466;28;46137;-56
2023/06/17 03:53:08;;;;;;;;;15.75;15.75;;;;;26.74;34.67;100793.25;2086439;28;46617;-57
2023/06/17 03:54:08;;;;;;;;;16.25;15.75;;;;;26.74;34.65;100793.25;2095200;28;46427;-57
2023/06/17 03:55:09;;;;;;;;;17.75;17.75;;;;;26.76;34.65;100801.28;2095369;28;46814;-54
2023/06/17 03:56:09;;;;;;;;;13.50;13.50;;;;;26.74;34.72;100798.72;2095695;28;46113;-57
2023/06/17 03:57:10;;;;;;;;;16.75;16.75;;;;;26.76;34.59;100798.56;2094341;28;46406;-58
2023/06/17 03:58:14;;;;;;;;;17.00;16.50;;;;;26.75;34.60;100797.72;2095151;28;46193;-57
2023/06/17 03:59:15;;;;;;;;;15.20;15.20;;;;;26.75;34.38;100797.72;2095225;28;45358;-56
2023/06/17 04:00:15;;;;;;;;;17.50;16.75;;;;;26.75;34.10;100802.28;2095337;28;46314;-57
2023/06/17 04:01:16;;;;;;;;;17.00;16.25;;;;;26.74;34.47;100804.16;2086690;28;46582;-56
2023/06/17 04:02:16;;;;;;;;;16.75;15.75;;;;;26.72;34.14;100805.28;2087203;28;46936;-57
2023/06/17 04:03:24;;;;;;;;;15.50;15.25;;;;;26.70;34.71;100802.72;2081094;28;46489;-56
2023/06/17 04:04:28;;;;;;;;;19.20;17.40;;;;;26.67;34.76;100798.38;2089135;28;46497;-56
2023/06/17 04:05:32;;;;;;;;;15.40;14.80;;;;;26.67;34.15;100802.97;2089367;28;46760;-56
2023/06/17 04:06:35;;;;;;;;;16.60;16.60;;;;;26.65;34.45;100800.38;2090013;28;46868;-56
2023/06/17 04:07:38;;;;;;;;;17.80;16.80;;;;;26.64;34.51;100806.81;2088544;28;46592;-57
2023/06/17 04:08:39;;;;;;;;;16.80;14.40;;;;;26.62;34.83;100800.66;2088892;28;46394;-56
2023/06/17 04:09:39;;;;;;;;;16.75;16.25;;;;;26.62;34.30;100806.09;2088743;28;46501;-56
2023/06/17 04:10:40;;;;;;;;;15.25;15.25;;;;;26.61;34.23;100807.09;2085718;28;46882;-55
2023/06/17 04:11:41;;;;;;;;;15.75;15.50;;;;;26.60;34.31;100805.38;2088394;28;46501;-57
2023/06/17 04:12:41;;;;;;;;;16.25;15.25;;;;;26.59;34.99;100803.66;2089121;28;46697;-56
2023/06/17 04:13:42;;;;;;;;;16.25;16.25;;;;;26.58;34.91;100804.66;2089391;28;46489;-56
2023/06/17 04:14:42;;;;;;;;;17.00;16.00;;;;;26.57;34.37;100811.09;2090704;28;46519;-55
2023/06/17 04:15:42;;;;;;;;;18.50;17.00;;;;;26.56;34.99;100816.66;2097834;28;47126;-57
2023/06/17 04:16:45;;;;;;;;;15.00;15.00;;;;;26.53;34.46;100809.59;2095557;28;46150;-55
2023/06/17 04:17:46;;;;;;;;;18.20;16.20;;;;;26.51;34.55;100806.16;2097359;28;46489;-56
2023/06/17 04:18:46;;;;;;;;;18.25;18.25;;;;;26.51;34.69;100810.75;2089359;28;46734;-55
2023/06/17 04:19:47;;;;;;;;;15.50;14.25;;;;;26.49;34.70;100807.31;2089337;28;46749;-55
2023/06/17 04:20:49;;;;;;;;;15.80;15.00;;;;;26.47;34.52;100807.44;2095551;28;46645;-56
2023/06/17 04:21:49;;;;;;;;;14.40;13.20;;;;;26.45;34.54;100804.00;2090787;28;46252;-57
2023/06/17 04:22:50;;;;;;;;;18.00;18.00;;;;;26.45;34.56;100806.72;2087110;28;46780;-56
2023/06/17 04:23:51;;;;;;;;;13.75;13.25;;;;;26.44;35.35;100798.69;2080951;28;46352;-56
2023/06/17 04:24:55;;;;;;;;;15.25;15.25;;;;;26.43;35.00;100797.81;2080748;28;46486;-56
2023/06/17 04:25:56;;;;;;;;;16.80;16.80;;;;;26.42;34.76;100800.66;2080718;28;46426;-55
2023/06/17 04:26:56;;;;;;;;;14.50;12.75;;;;;26.40;35.59;100801.66;2080564;28;46537;-57
2023/06/17 04:27:58;;;;;;;;;16.75;16.00;;;;;26.39;35.05;100805.38;2080640;28;46658;-57
2023/06/17 04:29:00;;;;;;;;;17.00;17.00;;;;;26.38;35.40;100798.19;2085169;28;46460;-56
2023/06/17 04:30:01;;;;;;;;;14.00;14.00;;;;;26.38;35.08;100802.78;2088962;28;46328;-56
2023/06/17 04:31:02;;;;;;;;;14.50;14.50;;;;;26.37;35.66;100799.19;2088848;28;46297;-57
2023/06/17 04:32:02;;;;;;;;;15.50;14.25;;;;;26.37;35.14;100799.19;2089080;28;46361;-57
2023/06/17 04:33:03;;;;;;;;;16.50;16.50;;;;;26.36;35.11;100797.47;2104157;28;46820;-57
2023/06/17 04:34:05;;;;;;;;;14.25;13.50;;;;;26.34;35.12;100801.31;2104901;28;46298;-56
2023/06/17 04:35:06;;;;;;;;;15.00;14.40;;;;;26.33;35.56;100799.56;2089369;28;47630;-57
2023/06/17 04:36:08;;;;;;;;;16.00;14.60;;;;;26.34;35.12;100804.88;2088779;28;46496;-57
2023/06/17 04:37:08;;;;;;;;;19.60;18.80;;;;;26.36;35.78;100804.78;2088927;28;46865;-57
2023/06/17 04:38:10;;;;;;;;;19.20;18.00;;;;;26.36;35.59;100805.63;2089137;28;46688;-58
2023/06/17 04:39:10;;;;;;;;;15.80;15.40;;;;;26.36;35.63;100802.06;2088745;28;46287;-57